sensor_id;sensor_type;location;lat;lon;timestamp;pressure;altitude;pressure_sealevel;temperature;humidity
60725;BME280;59881;36.722;-4.462;2023-02-22T00:00:50;101156.06;;;11.56;86.95
60725;BME280;59881;36.722;-4.462;2023-02-22T00:03:21;101161.44;;;11.54;86.68
60725;BME280;59881;36.722;-4.462;2023-02-22T00:05:54;101155.47;;;11.51;86.77
60725;BME280;59881;36.722;-4.462;2023-02-22T00:08:28;101149.47;;;11.49;87.31
60725;BME280;59881;36.722;-4.462;2023-02-22T00:11:06;100268.84;;;6.06;86.55
60725;BME280;59881;36.722;-4.462;2023-02-22T00:13:36;101144.94;;;11.51;87.30
60725;BME280;59881;36.722;-4.462;2023-02-22T00:16:03;100868.88;;;9.69;87.10
60725;BME280;59881;36.722;-4.462;2023-02-22T00:18:29;101091.28;;;11.23;87.74
60725;BME280;59881;36.722;-4.462;2023-02-22T00:20:55;100753.47;;;9.06;87.21
60725;BME280;59881;36.722;-4.462;2023-02-22T00:23:29;101014.41;;;10.88;87.18
60725;BME280;59881;36.722;-4.462;2023-02-22T00:25:56;101164.03;;;11.69;87.18
60725;BME280;59881;36.722;-4.462;2023-02-22T00:28:22;100452.34;;;7.42;86.28
60725;BME280;59881;36.722;-4.462;2023-02-22T00:30:50;101142.53;;;11.75;86.08
60725;BME280;59881;36.722;-4.462;2023-02-22T00:33:16;101147.19;;;11.71;85.40
60725;BME280;59881;36.722;-4.462;2023-02-22T00:35:44;100950.41;;;9.55;84.98
60725;BME280;59881;36.722;-4.462;2023-02-22T00:38:15;101292.63;;;11.67;84.65
60725;BME280;59881;36.722;-4.462;2023-02-22T00:40:41;101035.66;;;10.99;84.65
60725;BME280;59881;36.722;-4.462;2023-02-22T00:43:07;100880.84;;;10.04;84.13
60725;BME280;59881;36.722;-4.462;2023-02-22T00:45:34;101137.47;;;11.57;83.76
60725;BME280;59881;36.722;-4.462;2023-02-22T00:48:01;101012.06;;;10.83;83.75
60725;BME280;59881;36.722;-4.462;2023-02-22T00:50:28;101047.81;;;11.02;83.31
60725;BME280;59881;36.722;-4.462;2023-02-22T00:52:56;100979.22;;;9.87;83.75
60725;BME280;59881;36.722;-4.462;2023-02-22T00:55:27;101043.56;;;10.99;83.64
60725;BME280;59881;36.722;-4.462;2023-02-22T00:57:53;101132.50;;;11.53;83.46
60725;BME280;59881;36.722;-4.462;2023-02-22T01:00:29;101069.06;;;11.13;83.29
60725;BME280;59881;36.722;-4.462;2023-02-22T01:02:55;100815.97;;;9.60;83.14
60725;BME280;59881;36.722;-4.462;2023-02-22T01:05:24;101128.75;;;11.43;83.19
60725;BME280;59881;36.722;-4.462;2023-02-22T01:07:50;101128.00;;;11.41;83.17
60725;BME280;59881;36.722;-4.462;2023-02-22T01:10:17;101129.91;;;11.38;83.22
60725;BME280;59881;36.722;-4.462;2023-02-22T01:12:45;100431.19;;;7.15;82.88
60725;BME280;59881;36.722;-4.462;2023-02-22T01:15:11;100846.41;;;9.64;83.22
60725;BME280;59881;36.722;-4.462;2023-02-22T01:17:38;101129.97;;;11.37;83.35
60725;BME280;59881;36.722;-4.462;2023-02-22T01:20:06;101067.97;;;11.03;83.95
60725;BME280;59881;36.722;-4.462;2023-02-22T01:22:39;100811.19;;;9.52;83.52
60725;BME280;59881;36.722;-4.462;2023-02-22T01:25:07;101130.34;;;11.45;83.74
60725;BME280;59881;36.722;-4.462;2023-02-22T01:27:36;101072.94;;;11.07;83.39
60725;BME280;59881;36.722;-4.462;2023-02-22T01:30:04;101233.50;;;11.12;83.53
60725;BME280;59881;36.722;-4.462;2023-02-22T01:32:36;100845.91;;;9.43;83.32
60725;BME280;59881;36.722;-4.462;2023-02-22T01:35:06;100614.44;;;8.12;83.28
60725;BME280;59881;36.722;-4.462;2023-02-22T01:37:33;101128.69;;;11.15;83.58
60725;BME280;59881;36.722;-4.462;2023-02-22T01:39:59;100575.66;;;7.87;83.77
60725;BME280;59881;36.722;-4.462;2023-02-22T01:42:25;101124.44;;;11.13;84.57
60725;BME280;59881;36.722;-4.462;2023-02-22T01:48:19;101125.00;;;11.04;84.69
60725;BME280;59881;36.722;-4.462;2023-02-22T01:50:57;100979.38;;;10.14;85.16
60725;BME280;59881;36.722;-4.462;2023-02-22T01:53:27;101112.03;;;11.01;85.43
60725;BME280;59881;36.722;-4.462;2023-02-22T01:55:55;101025.63;;;10.48;85.28
60725;BME280;59881;36.722;-4.462;2023-02-22T01:58:23;101104.13;;;11.01;85.67
60725;BME280;59881;36.722;-4.462;2023-02-22T02:00:50;101104.28;;;10.97;85.89
60725;BME280;59881;36.722;-4.462;2023-02-22T02:03:22;100268.09;;;5.86;85.15
60725;BME280;59881;36.722;-4.462;2023-02-22T02:05:53;101043.50;;;10.57;86.00
60725;BME280;59881;36.722;-4.462;2023-02-22T02:11:08;101089.41;;;10.82;85.56
60725;BME280;59881;36.722;-4.462;2023-02-22T02:13:34;101090.00;;;10.87;85.66
60725;BME280;59881;36.722;-4.462;2023-02-22T02:16:00;100857.28;;;9.43;85.48
60725;BME280;59881;36.722;-4.462;2023-02-22T02:18:26;100978.06;;;10.21;85.54
60725;BME280;59881;36.722;-4.462;2023-02-22T02:21:19;100987.28;;;10.28;85.83
60725;BME280;59881;36.722;-4.462;2023-02-22T02:24:22;101083.09;;;10.85;85.80
60725;BME280;59881;36.722;-4.462;2023-02-22T02:27:05;101087.38;;;10.87;85.46
60725;BME280;59881;36.722;-4.462;2023-02-22T02:33:17;100809.50;;;9.06;85.56
60725;BME280;59881;36.722;-4.462;2023-02-22T02:35:27;99943.75;;;3.48;84.54
60725;BME280;59881;36.722;-4.462;2023-02-22T02:40:46;100767.50;;;8.90;85.14
60725;BME280;59881;36.722;-4.462;2023-02-22T02:43:35;101077.47;;;10.76;85.34
60725;BME280;59881;36.722;-4.462;2023-02-22T02:46:28;101074.94;;;10.75;85.33
60725;BME280;59881;36.722;-4.462;2023-02-22T02:48:59;101070.63;;;10.74;85.23
60725;BME280;59881;36.722;-4.462;2023-02-22T02:51:32;100790.88;;;8.17;85.22
60725;BME280;59881;36.722;-4.462;2023-02-22T02:53:59;101067.41;;;10.69;85.70
60725;BME280;59881;36.722;-4.462;2023-02-22T02:56:26;101068.25;;;10.69;85.64
60725;BME280;59881;36.722;-4.462;2023-02-22T02:58:52;100836.97;;;9.31;85.81
60725;BME280;59881;36.722;-4.462;2023-02-22T03:01:36;101164.72;;;10.72;85.66
60725;BME280;59881;36.722;-4.462;2023-02-22T03:07:15;101053.19;;;10.71;85.68
60725;BME280;59881;36.722;-4.462;2023-02-22T03:12:56;101054.22;;;10.69;85.65
60725;BME280;59881;36.722;-4.462;2023-02-22T03:24:24;100642.66;;;8.55;85.50
60725;BME280;59881;36.722;-4.462;2023-02-22T03:26:56;101039.69;;;11.05;85.38
60725;BME280;59881;36.722;-4.462;2023-02-22T03:29:25;101040.34;;;11.08;84.37
60725;BME280;59881;36.722;-4.462;2023-02-22T03:31:57;101046.28;;;11.12;83.79
60725;BME280;59881;36.722;-4.462;2023-02-22T03:34:47;101065.59;;;11.12;83.73
60725;BME280;59881;36.722;-4.462;2023-02-22T03:37:22;100979.03;;;10.77;83.09
60725;BME280;59881;36.722;-4.462;2023-02-22T03:39:51;101087.91;;;11.07;82.98
60725;BME280;59881;36.722;-4.462;2023-02-22T03:42:25;101044.03;;;11.06;82.53
60725;BME280;59881;36.722;-4.462;2023-02-22T03:44:54;101081.63;;;11.09;82.73
60725;BME280;59881;36.722;-4.462;2023-02-22T03:47:29;100466.94;;;7.62;82.12
60725;BME280;59881;36.722;-4.462;2023-02-22T03:49:57;101036.94;;;11.21;82.03
60725;BME280;59881;36.722;-4.462;2023-02-22T03:52:24;100496.69;;;7.61;80.91
60725;BME280;59881;36.722;-4.462;2023-02-22T03:54:50;100545.59;;;8.23;80.83
60725;BME280;59881;36.722;-4.462;2023-02-22T03:57:26;100942.03;;;10.65;80.74
60725;BME280;59881;36.722;-4.462;2023-02-22T03:59:53;100493.59;;;7.85;80.36
60725;BME280;59881;36.722;-4.462;2023-02-22T04:02:18;100960.69;;;10.62;80.65
60725;BME280;59881;36.722;-4.462;2023-02-22T04:04:47;100982.41;;;10.80;80.47
60725;BME280;59881;36.722;-4.462;2023-02-22T04:07:13;101038.56;;;11.09;80.84
60725;BME280;59881;36.722;-4.462;2023-02-22T04:09:38;101039.50;;;11.08;80.93
60725;BME280;59881;36.722;-4.462;2023-02-22T04:12:04;100385.47;;;7.05;80.50
60725;BME280;59881;36.722;-4.462;2023-02-22T04:14:29;100532.47;;;7.62;80.74
60725;BME280;59881;36.722;-4.462;2023-02-22T04:16:55;100147.28;;;5.65;80.68
60725;BME280;59881;36.722;-4.462;2023-02-22T04:19:21;101147.50;;;11.24;81.10
60725;BME280;59881;36.722;-4.462;2023-02-22T04:21:46;101031.19;;;11.28;81.01
60725;BME280;59881;36.722;-4.462;2023-02-22T04:24:12;101027.03;;;11.24;80.66
60725;BME280;59881;36.722;-4.462;2023-02-22T04:26:38;100916.34;;;10.68;80.68
60725;BME280;59881;36.722;-4.462;2023-02-22T04:29:03;100452.53;;;7.70;80.16
60725;BME280;59881;36.722;-4.462;2023-02-22T04:31:30;101033.56;;;11.46;80.17
60725;BME280;59881;36.722;-4.462;2023-02-22T04:33:55;100918.22;;;10.81;80.20
60725;BME280;59881;36.722;-4.462;2023-02-22T04:36:21;100665.88;;;9.34;79.82
60725;BME280;59881;36.722;-4.462;2023-02-22T04:38:47;100926.81;;;10.55;80.11
60725;BME280;59881;36.722;-4.462;2023-02-22T04:41:12;101029.09;;;11.60;79.65
60725;BME280;59881;36.722;-4.462;2023-02-22T04:43:38;101022.97;;;11.60;79.70
60725;BME280;59881;36.722;-4.462;2023-02-22T04:46:04;101025.81;;;11.57;79.51
60725;BME280;59881;36.722;-4.462;2023-02-22T04:48:30;101029.59;;;11.53;79.24
60725;BME280;59881;36.722;-4.462;2023-02-22T04:50:56;100756.50;;;9.86;79.47
60725;BME280;59881;36.722;-4.462;2023-02-22T04:53:21;101028.09;;;11.49;79.51
60725;BME280;59881;36.722;-4.462;2023-02-22T04:55:47;101027.34;;;11.47;79.35
60725;BME280;59881;36.722;-4.462;2023-02-22T04:58:12;100816.72;;;10.19;79.44
60725;BME280;59881;36.722;-4.462;2023-02-22T05:00:38;101029.34;;;11.43;79.58
60725;BME280;59881;36.722;-4.462;2023-02-22T05:03:03;101000.78;;;11.23;79.53
60725;BME280;59881;36.722;-4.462;2023-02-22T05:05:29;100992.91;;;11.08;79.41
60725;BME280;59881;36.722;-4.462;2023-02-22T05:07:54;101068.94;;;11.29;79.92
60725;BME280;59881;36.722;-4.462;2023-02-22T05:10:20;100669.38;;;9.06;79.38
60725;BME280;59881;36.722;-4.462;2023-02-22T05:12:45;101020.72;;;10.71;79.79
60725;BME280;59881;36.722;-4.462;2023-02-22T05:15:16;101032.53;;;11.21;80.02
60725;BME280;59881;36.722;-4.462;2023-02-22T05:17:42;100920.63;;;10.56;80.40
60725;BME280;59881;36.722;-4.462;2023-02-22T05:20:16;100713.03;;;9.37;80.44
60725;BME280;59881;36.722;-4.462;2023-02-22T05:22:42;101029.88;;;10.65;80.21
60725;BME280;59881;36.722;-4.462;2023-02-22T05:25:07;101045.88;;;11.32;80.38
60725;BME280;59881;36.722;-4.462;2023-02-22T05:27:35;101121.13;;;11.38;80.37
60725;BME280;59881;36.722;-4.462;2023-02-22T05:30:01;100935.06;;;10.78;80.00
60725;BME280;59881;36.722;-4.462;2023-02-22T05:32:26;100772.66;;;9.80;80.17
60725;BME280;59881;36.722;-4.462;2023-02-22T05:34:52;100996.81;;;11.15;80.28
60725;BME280;59881;36.722;-4.462;2023-02-22T05:37:17;100840.19;;;10.22;79.68
60725;BME280;59881;36.722;-4.462;2023-02-22T05:39:43;100603.00;;;8.74;79.68
60725;BME280;59881;36.722;-4.462;2023-02-22T05:42:10;100995.91;;;11.16;80.07
60725;BME280;59881;36.722;-4.462;2023-02-22T05:44:36;100837.69;;;10.21;79.68
60725;BME280;59881;36.722;-4.462;2023-02-22T05:47:01;100590.88;;;8.71;79.37
60725;BME280;59881;36.722;-4.462;2023-02-22T05:49:27;100935.72;;;10.82;79.81
60725;BME280;59881;36.722;-4.462;2023-02-22T05:51:53;100972.53;;;10.40;79.45
60725;BME280;59881;36.722;-4.462;2023-02-22T05:54:23;100476.47;;;8.08;78.79
60725;BME280;59881;36.722;-4.462;2023-02-22T05:56:48;101041.28;;;11.49;79.06
60725;BME280;59881;36.722;-4.462;2023-02-22T05:59:14;100907.53;;;10.69;78.79
60725;BME280;59881;36.722;-4.462;2023-02-22T06:01:39;100079.97;;;5.69;78.37
60725;BME280;59881;36.722;-4.462;2023-02-22T06:04:05;100956.66;;;10.97;78.59
60725;BME280;59881;36.722;-4.462;2023-02-22T06:06:30;100880.34;;;10.54;78.23
60725;BME280;59881;36.722;-4.462;2023-02-22T06:08:56;101042.25;;;11.48;78.52
60725;BME280;59881;36.722;-4.462;2023-02-22T06:11:21;100823.84;;;10.17;78.54
60725;BME280;59881;36.722;-4.462;2023-02-22T06:13:51;100635.94;;;8.94;78.72
60725;BME280;59881;36.722;-4.462;2023-02-22T06:16:17;100868.44;;;10.34;78.99
60725;BME280;59881;36.722;-4.462;2023-02-22T06:18:43;100638.72;;;8.62;78.68
60725;BME280;59881;36.722;-4.462;2023-02-22T06:21:08;101031.44;;;10.82;79.20
60725;BME280;59881;36.722;-4.462;2023-02-22T06:23:34;100939.97;;;10.70;79.35
60725;BME280;59881;36.722;-4.462;2023-02-22T06:25:59;100935.56;;;10.70;79.55
60725;BME280;59881;36.722;-4.462;2023-02-22T06:28:25;100574.06;;;8.45;79.33
60725;BME280;59881;36.722;-4.462;2023-02-22T06:30:51;100792.94;;;9.35;79.37
60725;BME280;59881;36.722;-4.462;2023-02-22T06:33:16;100878.00;;;9.78;79.53
60725;BME280;59881;36.722;-4.462;2023-02-22T06:35:42;100416.84;;;7.37;79.81
60725;BME280;59881;36.722;-4.462;2023-02-22T06:38:07;100685.94;;;8.78;80.04
60725;BME280;59881;36.722;-4.462;2023-02-22T06:40:33;101046.00;;;11.16;79.96
60725;BME280;59881;36.722;-4.462;2023-02-22T06:42:59;100833.47;;;9.75;80.25
60725;BME280;59881;36.722;-4.462;2023-02-22T06:45:24;100956.66;;;10.56;80.36
60725;BME280;59881;36.722;-4.462;2023-02-22T06:47:50;100856.75;;;9.95;80.47
60725;BME280;59881;36.722;-4.462;2023-02-22T06:50:22;101062.75;;;11.15;80.69
60725;BME280;59881;36.722;-4.462;2023-02-22T06:52:47;100965.78;;;10.50;80.62
60725;BME280;59881;36.722;-4.462;2023-02-22T06:55:33;101068.03;;;11.15;80.38
60725;BME280;59881;36.722;-4.462;2023-02-22T06:58:00;101045.38;;;10.70;80.49
60725;BME280;59881;36.722;-4.462;2023-02-22T07:00:27;100795.41;;;9.52;80.50
60725;BME280;59881;36.722;-4.462;2023-02-22T07:02:53;101069.66;;;11.18;80.44
60725;BME280;59881;36.722;-4.462;2023-02-22T07:05:21;101067.09;;;11.16;80.28
60725;BME280;59881;36.722;-4.462;2023-02-22T07:07:47;101000.00;;;10.79;80.46
60725;BME280;59881;36.722;-4.462;2023-02-22T07:10:24;101076.00;;;11.28;80.67
60725;BME280;59881;36.722;-4.462;2023-02-22T07:12:50;100812.78;;;9.10;80.41
60725;BME280;59881;36.722;-4.462;2023-02-22T07:15:23;101187.06;;;11.52;80.15
60725;BME280;59881;36.722;-4.462;2023-02-22T07:17:49;100975.28;;;11.09;79.84
60725;BME280;59881;36.722;-4.462;2023-02-22T07:20:16;100919.69;;;10.14;79.00
60725;BME280;59881;36.722;-4.462;2023-02-22T07:22:42;100240.84;;;7.00;77.97
60725;BME280;59881;36.722;-4.462;2023-02-22T07:25:08;100600.72;;;9.39;77.56
60725;BME280;59881;36.722;-4.462;2023-02-22T07:27:36;101071.34;;;12.53;77.08
60725;BME280;59881;36.722;-4.462;2023-02-22T07:30:04;101068.47;;;12.82;76.10
60725;BME280;59881;36.722;-4.462;2023-02-22T07:32:29;100908.38;;;12.15;74.84
60725;BME280;59881;36.722;-4.462;2023-02-22T07:34:55;100540.28;;;10.19;73.94
60725;BME280;59881;36.722;-4.462;2023-02-22T07:37:20;100409.13;;;9.60;72.84
60725;BME280;59881;36.722;-4.462;2023-02-22T07:39:46;100948.22;;;12.88;71.76
60725;BME280;59881;36.722;-4.462;2023-02-22T07:42:11;100929.34;;;13.64;70.02
60725;BME280;59881;36.722;-4.462;2023-02-22T07:44:37;100751.00;;;12.61;68.37
60725;BME280;59881;36.722;-4.462;2023-02-22T07:47:03;101071.47;;;15.47;67.15
60725;BME280;59881;36.722;-4.462;2023-02-22T07:49:28;100961.50;;;15.29;65.11
60725;BME280;59881;36.722;-4.462;2023-02-22T07:51:54;101061.22;;;16.40;63.02
60725;BME280;59881;36.722;-4.462;2023-02-22T07:54:19;101055.03;;;16.91;61.22
60725;BME280;59881;36.722;-4.462;2023-02-22T07:56:48;101054.06;;;17.42;58.90
60725;BME280;59881;36.722;-4.462;2023-02-22T07:59:14;101009.22;;;17.47;56.92
60725;BME280;59881;36.722;-4.462;2023-02-22T08:01:40;100651.31;;;15.45;55.16
60725;BME280;59881;36.722;-4.462;2023-02-22T08:04:06;100980.19;;;17.93;53.87
60725;BME280;59881;36.722;-4.462;2023-02-22T08:06:32;101068.13;;;18.89;52.66
60725;BME280;59881;36.722;-4.462;2023-02-22T08:08:58;101056.88;;;19.40;51.61
60725;BME280;59881;36.722;-4.462;2023-02-22T08:11:25;101045.72;;;19.91;50.02
60725;BME280;59881;36.722;-4.462;2023-02-22T08:13:51;101003.03;;;20.33;48.36
60725;BME280;59881;36.722;-4.462;2023-02-22T08:16:16;100683.91;;;18.87;46.64
60725;BME280;59881;36.722;-4.462;2023-02-22T08:21:07;101146.72;;;22.21;43.85
60725;BME280;59881;36.722;-4.462;2023-02-22T08:23:33;101065.84;;;22.57;42.72
60725;BME280;59881;36.722;-4.462;2023-02-22T08:26:10;101061.53;;;22.95;41.71
60725;BME280;59881;36.722;-4.462;2023-02-22T08:28:39;101072.50;;;23.56;40.93
60725;BME280;59881;36.722;-4.462;2023-02-22T08:31:05;101067.06;;;24.10;39.07
60725;BME280;59881;36.722;-4.462;2023-02-22T08:33:33;100876.19;;;23.18;37.86
60725;BME280;59881;36.722;-4.462;2023-02-22T08:36:00;101082.97;;;24.88;37.52
60725;BME280;59881;36.722;-4.462;2023-02-22T08:38:28;101083.97;;;25.31;36.18
60725;BME280;59881;36.722;-4.462;2023-02-22T08:40:55;101143.53;;;25.88;35.59
60725;BME280;59881;36.722;-4.462;2023-02-22T08:43:21;101085.91;;;26.52;34.21
60725;BME280;59881;36.722;-4.462;2023-02-22T08:45:48;101100.75;;;26.91;32.81
60725;BME280;59881;36.722;-4.462;2023-02-22T08:48:14;101050.59;;;27.36;32.34
60725;BME280;59881;36.722;-4.462;2023-02-22T08:50:40;101081.53;;;28.22;31.26
60725;BME280;59881;36.722;-4.462;2023-02-22T08:53:07;100776.75;;;26.81;30.23
60725;BME280;59881;36.722;-4.462;2023-02-22T08:55:35;101086.63;;;29.03;29.78
60725;BME280;59881;36.722;-4.462;2023-02-22T08:58:02;101085.63;;;29.43;29.17
60725;BME280;59881;36.722;-4.462;2023-02-22T09:00:30;100821.56;;;28.09;28.72
60725;BME280;59881;36.722;-4.462;2023-02-22T09:03:00;101068.75;;;29.98;28.24
60725;BME280;59881;36.722;-4.462;2023-02-22T09:05:26;100729.41;;;28.22;27.69
60725;BME280;59881;36.722;-4.462;2023-02-22T09:07:53;101070.50;;;30.79;27.14
60725;BME280;59881;36.722;-4.462;2023-02-22T09:10:24;100965.09;;;30.63;26.46
60725;BME280;59881;36.722;-4.462;2023-02-22T09:12:51;100520.94;;;28.59;25.85
60725;BME280;59881;36.722;-4.462;2023-02-22T09:15:17;101094.72;;;32.91;24.89
60725;BME280;59881;36.722;-4.462;2023-02-22T09:17:43;100737.06;;;31.37;24.01
60725;BME280;59881;36.722;-4.462;2023-02-22T09:20:09;101101.41;;;33.81;23.42
60725;BME280;59881;36.722;-4.462;2023-02-22T09:22:37;101099.66;;;34.09;23.25
60725;BME280;59881;36.722;-4.462;2023-02-22T09:25:03;100509.19;;;31.04;22.45
60725;BME280;59881;36.722;-4.462;2023-02-22T09:27:29;100891.16;;;33.91;21.96
60725;BME280;59881;36.722;-4.462;2023-02-22T09:29:55;100807.63;;;34.00;21.18
60725;BME280;59881;36.722;-4.462;2023-02-22T09:32:22;101048.88;;;36.04;20.69
60725;BME280;59881;36.722;-4.462;2023-02-22T09:34:48;101092.50;;;36.96;20.17
60725;BME280;59881;36.722;-4.462;2023-02-22T09:37:13;100989.50;;;36.73;19.80
60725;BME280;59881;36.722;-4.462;2023-02-22T09:39:39;101102.06;;;37.77;19.18
60725;BME280;59881;36.722;-4.462;2023-02-22T09:42:15;101092.69;;;38.19;19.02
60725;BME280;59881;36.722;-4.462;2023-02-22T09:45:21;101069.03;;;38.34;18.53
60725;BME280;59881;36.722;-4.462;2023-02-22T09:47:51;101041.16;;;38.66;18.34
60725;BME280;59881;36.722;-4.462;2023-02-22T09:50:41;101069.31;;;39.52;17.53
60725;BME280;59881;36.722;-4.462;2023-02-22T09:55:48;101068.56;;;40.10;16.77
60725;BME280;59881;36.722;-4.462;2023-02-22T10:00:41;101032.78;;;40.29;16.61
60725;BME280;59881;36.722;-4.462;2023-02-22T10:05:52;101077.41;;;41.79;15.75
60725;BME280;59881;36.722;-4.462;2023-02-22T10:08:24;101081.19;;;42.57;15.37
60725;BME280;59881;36.722;-4.462;2023-02-22T10:13:32;101059.56;;;43.24;14.84
60725;BME280;59881;36.722;-4.462;2023-02-22T10:24:55;101077.91;;;45.07;13.66
60725;BME280;59881;36.722;-4.462;2023-02-22T10:27:46;101080.22;;;45.40;12.97
60725;BME280;59881;36.722;-4.462;2023-02-22T10:30:33;101075.44;;;45.75;13.30
60725;BME280;59881;36.722;-4.462;2023-02-22T10:33:11;101076.91;;;45.81;12.98
60725;BME280;59881;36.722;-4.462;2023-02-22T10:35:39;101053.19;;;45.75;12.50
60725;BME280;59881;36.722;-4.462;2023-02-22T10:38:13;101073.09;;;45.95;12.99
60725;BME280;59881;36.722;-4.462;2023-02-22T10:40:45;100990.53;;;45.52;12.78
60725;BME280;59881;36.722;-4.462;2023-02-22T10:43:13;101010.81;;;45.61;12.42
60725;BME280;59881;36.722;-4.462;2023-02-22T10:45:39;100739.97;;;44.07;13.02
60725;BME280;59881;36.722;-4.462;2023-02-22T10:48:09;100840.66;;;45.03;12.05
60725;BME280;59881;36.722;-4.462;2023-02-22T10:50:38;101042.44;;;46.63;12.57
60725;BME280;59881;36.722;-4.462;2023-02-22T10:53:06;101002.28;;;46.13;12.27
60725;BME280;59881;36.722;-4.462;2023-02-22T10:55:33;101097.78;;;46.52;12.12
60725;BME280;59881;36.722;-4.462;2023-02-22T10:58:05;101051.44;;;46.09;12.33
60725;BME280;59881;36.722;-4.462;2023-02-22T11:00:36;101049.13;;;45.20;13.07
60725;BME280;59881;36.722;-4.462;2023-02-22T11:03:18;101065.16;;;44.40;13.69
60725;BME280;59881;36.722;-4.462;2023-02-22T11:05:44;101058.72;;;42.17;14.48
60725;BME280;59881;36.722;-4.462;2023-02-22T11:08:24;101016.09;;;36.73;18.61
60725;BME280;59881;36.722;-4.462;2023-02-22T11:10:55;100974.44;;;32.64;22.45
60725;BME280;59881;36.722;-4.462;2023-02-22T11:13:33;101095.09;;;30.91;25.53
60725;BME280;59881;36.722;-4.462;2023-02-22T11:21:35;100982.75;;;27.31;29.97
60725;BME280;59881;36.722;-4.462;2023-02-22T11:24:04;101057.19;;;27.20;30.43
60725;BME280;59881;36.722;-4.462;2023-02-22T11:26:38;101042.00;;;26.71;31.53
60725;BME280;59881;36.722;-4.462;2023-02-22T11:29:15;101072.81;;;26.77;32.01
60725;BME280;59881;36.722;-4.462;2023-02-22T11:31:44;101071.31;;;26.39;32.39
60725;BME280;59881;36.722;-4.462;2023-02-22T11:34:32;101049.22;;;25.43;32.62
60725;BME280;59881;36.722;-4.462;2023-02-22T11:37:15;101073.81;;;25.91;33.38
60725;BME280;59881;36.722;-4.462;2023-02-22T11:39:41;101084.38;;;25.50;37.62
60725;BME280;59881;36.722;-4.462;2023-02-22T11:42:23;101052.97;;;24.76;39.21
60725;BME280;59881;36.722;-4.462;2023-02-22T11:45:10;101074.56;;;24.38;41.10
60725;BME280;59881;36.722;-4.462;2023-02-22T11:50:38;101072.59;;;23.40;44.30
60725;BME280;59881;36.722;-4.462;2023-02-22T11:58:43;101066.22;;;22.45;47.32
60725;BME280;59881;36.722;-4.462;2023-02-22T12:01:37;101055.31;;;22.22;47.88
60725;BME280;59881;36.722;-4.462;2023-02-22T12:20:45;100939.13;;;20.30;50.44
60725;BME280;59881;36.722;-4.462;2023-02-22T12:23:17;101007.97;;;20.46;51.42
60725;BME280;59881;36.722;-4.462;2023-02-22T12:28:31;100554.03;;;17.36;53.06
60725;BME280;59881;36.722;-4.462;2023-02-22T12:31:20;101024.66;;;20.14;53.42
60725;BME280;59881;36.722;-4.462;2023-02-22T12:33:55;100838.00;;;19.03;54.17
60725;BME280;59881;36.722;-4.462;2023-02-22T12:36:34;101020.56;;;20.27;54.18
60725;BME280;59881;36.722;-4.462;2023-02-22T12:39:10;101016.63;;;20.14;55.38
60725;BME280;59881;36.722;-4.462;2023-02-22T12:41:47;100606.75;;;17.50;55.83
60725;BME280;59881;36.722;-4.462;2023-02-22T12:44:21;101008.34;;;19.81;55.87
60725;BME280;59881;36.722;-4.462;2023-02-22T12:46:50;100910.41;;;19.18;54.98
60725;BME280;59881;36.722;-4.462;2023-02-22T12:49:37;101031.16;;;19.39;54.74
60725;BME280;59881;36.722;-4.462;2023-02-22T12:52:40;100991.16;;;19.83;54.84
60725;BME280;59881;36.722;-4.462;2023-02-22T12:55:19;100988.34;;;19.85;54.35
60725;BME280;59881;36.722;-4.462;2023-02-22T12:58:05;100919.69;;;19.50;53.86
60725;BME280;59881;36.722;-4.462;2023-02-22T13:00:42;100974.34;;;19.91;53.71
60725;BME280;59881;36.722;-4.462;2023-02-22T13:05:56;100575.72;;;17.59;51.90
60725;BME280;59881;36.722;-4.462;2023-02-22T13:08:32;100966.00;;;19.94;50.76
60725;BME280;59881;36.722;-4.462;2023-02-22T13:22:19;100938.00;;;19.62;51.08
60725;BME280;59881;36.722;-4.462;2023-02-22T13:24:52;100929.91;;;19.54;51.36
60725;BME280;59881;36.722;-4.462;2023-02-22T13:27:29;100927.56;;;19.51;51.59
60725;BME280;59881;36.722;-4.462;2023-02-22T13:29:59;100895.31;;;19.27;51.55
60725;BME280;59881;36.722;-4.462;2023-02-22T13:52:01;100847.63;;;18.96;56.49
60725;BME280;59881;36.722;-4.462;2023-02-22T13:54:41;100561.19;;;16.51;56.88
60725;BME280;59881;36.722;-4.462;2023-02-22T13:57:19;100905.06;;;19.18;57.19
60725;BME280;59881;36.722;-4.462;2023-02-22T13:59:46;100811.22;;;18.59;57.00
60725;BME280;59881;36.722;-4.462;2023-02-22T14:08:02;100836.59;;;18.63;57.28
60725;BME280;59881;36.722;-4.462;2023-02-22T14:13:11;100864.63;;;19.13;56.02
60725;BME280;59881;36.722;-4.462;2023-02-22T14:18:43;100889.72;;;19.38;55.45
60725;BME280;59881;36.722;-4.462;2023-02-22T14:21:20;100594.25;;;17.05;55.07
60725;BME280;59881;36.722;-4.462;2023-02-22T14:23:48;100876.06;;;19.23;55.19
60725;BME280;59881;36.722;-4.462;2023-02-22T14:26:32;100274.75;;;15.41;55.03
60725;BME280;59881;36.722;-4.462;2023-02-22T14:29:15;100857.63;;;19.12;55.38
60725;BME280;59881;36.722;-4.462;2023-02-22T14:37:17;100867.53;;;19.19;55.78
60725;BME280;59881;36.722;-4.462;2023-02-22T14:39:47;101012.88;;;19.17;56.07
60725;BME280;59881;36.722;-4.462;2023-02-22T14:51:01;100861.72;;;18.88;58.28
60725;BME280;59881;36.722;-4.462;2023-02-22T14:53:36;100858.84;;;18.81;58.08
60725;BME280;59881;36.722;-4.462;2023-02-22T14:56:05;100857.25;;;18.89;57.77
60725;BME280;59881;36.722;-4.462;2023-02-22T14:58:43;100942.91;;;18.95;58.02
60725;BME280;59881;36.722;-4.462;2023-02-22T15:01:30;100858.22;;;18.88;58.21
60725;BME280;59881;36.722;-4.462;2023-02-22T15:04:27;100857.72;;;18.84;57.99
60725;BME280;59881;36.722;-4.462;2023-02-22T15:06:56;100862.88;;;18.86;57.81
60725;BME280;59881;36.722;-4.462;2023-02-22T15:09:30;100858.84;;;18.81;57.53
60725;BME280;59881;36.722;-4.462;2023-02-22T15:14:28;100827.91;;;18.61;58.08
60725;BME280;59881;36.722;-4.462;2023-02-22T15:16:57;100850.56;;;18.75;57.60
60725;BME280;59881;36.722;-4.462;2023-02-22T15:19:27;100860.03;;;18.69;57.76
60725;BME280;59881;36.722;-4.462;2023-02-22T15:21:55;100816.38;;;18.43;57.69